YWAN weather

CLOSED Wallan Airport
Victoria, Australia

Public forecast

Using degrees Celsius for public forecast. Weather courtesy of forecast.io.

Closest aviation weather report (METAR) to Wallan Airport

Closest report is Melbourne International Airport, 16.0 nm (29.6 km) SSW. Retrieved 2019/10/20 23:30 UTC (4 minutes ago):

YMML 202330Z 20004KT 170V230 9999 SCT015 BKN017 12/07 Q1029 FM0100 17010KT CAVOK

Closest aviation forecast (TAF) to Wallan Airport

Forecast is more than 6 hours old.

Closest forecast is Melbourne International Airport, 16.0 nm (29.6 km) SSW. Retrieved 2019/10/20 12:38 UTC (11 hours ago):

TAF YMML 201132Z 2012/2118 24010KT 9999 BKN025 BECMG 2023/2024 17014KT CAVOK FM211000 19006KT 9999 BKN012 TEMPO 2014/2018 9999 BKN015 TEMPO 2018/2022 9999 BKN010 TEMPO 2116/2118 9999 BKN009